This is the latest recevied weather packets stored in our database for station/object KQ4UPF. If no packets are shown the sender has not sent any weather packets the latest 1 day(s).
| Time | Temp. | Humidity | Pressure | Rain* | Wind** | Luminosity | Snow |
|---|---|---|---|---|---|---|---|
| 1778020630 | 22.78° C | 64% | 1012.9 hPa | 0 mm | 0 m/s | 38 W/m² | - |
| 1778020325 | 22.78° C | 62% | 1012.4 hPa | 0 mm | 0 m/s | 48 W/m² | - |
| 1778020021 | 23.33° C | 62% | 1012.8 hPa | 0 mm | 0 m/s | 60 W/m² | - |
| 1778019717 | 23.89° C | 61% | 1012.8 hPa | 0 mm | 0.45 m/s, 156° | 70 W/m² | - |
| 1778019415 | 23.89° C | 57% | 1012.7 hPa | 0 mm | 0.45 m/s, 157° | 99 W/m² | - |
| 1778019111 | 23.89° C | 58% | 1012.8 hPa | 0 mm | 0 m/s | 139 W/m² | - |
| 1778018809 | 23.89° C | 57% | 1012.6 hPa | 0 mm | 0.45 m/s, 137° | 186 W/m² | - |
| 1778018506 | 23.89° C | 56% | 1012.6 hPa | 0 mm | 0.45 m/s, 137° | 224 W/m² | - |
| 1778018204 | 23.89° C | 56% | 1012.6 hPa | 0 mm | 0.45 m/s, 137° | 234 W/m² | - |
| 1778017902 | 23.89° C | 55% | 1012.6 hPa | 0 mm | 0.89 m/s, 117° | 184 W/m² | - |
| 1778017600 | 24.44° C | 57% | 1012.6 hPa | 0 mm | 1.34 m/s, 115° | 295 W/m² | - |
| 1778017296 | 24.44° C | 51% | 1012.5 hPa | 0 mm | 0.45 m/s, 78° | 256 W/m² | - |
| 1778016994 | 24.44° C | 51% | 1012.6 hPa | 0 mm | 0.45 m/s, 121° | 391 W/m² | - |
| 1778016691 | 24.44° C | 52% | 1012.7 hPa | 0 mm | 0.45 m/s, 230° | 446 W/m² | - |
| 1778016386 | 25° C | 55% | 1012.8 hPa | 0 mm | 0.89 m/s, 129° | 220 W/m² | - |
| 1778016085 | 25.56° C | 52% | 1012.3 hPa | 0 mm | 0 m/s | 274 W/m² | - |
| 1778015781 | 25.56° C | 47% | 1012.4 hPa | 0 mm | 0.45 m/s, 225° | 376 W/m² | - |
| 1778015478 | 25° C | 53% | 1012.4 hPa | 0 mm | 0.89 m/s, 219° | 512 W/m² | - |
| 1778015175 | 24.44° C | 49% | 1012.4 hPa | 0 mm | 0 m/s | 353 W/m² | - |
| 1778014872 | 24.44° C | 54% | 1012.5 hPa | 0 mm | 0 m/s | 293 W/m² | - |
| 1778014569 | 25° C | 48% | 1012.5 hPa | 0 mm | 1.34 m/s, 136° | 331 W/m² | - |
| 1778014267 | 25.56° C | 46% | 1012.4 hPa | 0 mm | 0.45 m/s, 115° | 441 W/m² | - |
| 1778013964 | 25° C | 52% | 1012.4 hPa | 0 mm | 0.45 m/s, 162° | 430 W/m² | - |
| 1778013661 | 24.44° C | 53% | 1012.5 hPa | 0 mm | 0.89 m/s, 94° | 785 W/m² | - |
| 1778013358 | 25° C | 52% | 1012.7 hPa | 0 mm | 0.45 m/s, 155° | 229 W/m² | - |
* Rain latest hour (hover to see other rain measurements)
** Current wind speed in m/s (hover to see current wind gust speed)